createdAt,value
2019-01-27T00:00:14.534Z,80.90
2019-01-27T00:02:42.813Z,77.27
2019-01-27T00:05:11.349Z,81.70
2019-01-27T00:07:39.625Z,75.20
2019-01-27T00:10:10.463Z,81.17
2019-01-27T00:12:38.739Z,76.73
2019-01-27T00:15:10.367Z,81.00
2019-01-27T00:17:38.630Z,79.07
2019-01-27T00:20:20.737Z,71.80
2019-01-27T00:22:49.016Z,76.30
2019-01-27T00:25:17.858Z,75.27
2019-01-27T00:27:46.132Z,83.37
2019-01-27T00:30:22.107Z,80.97
2019-01-27T00:32:50.701Z,79.10
2019-01-27T00:35:18.994Z,73.20
2019-01-27T00:37:47.448Z,77.50
2019-01-27T00:40:16.981Z,78.73
2019-01-27T00:42:45.596Z,79.13
2019-01-27T00:45:18.277Z,81.50
2019-01-27T00:47:46.627Z,81.13
2019-01-27T00:50:19.761Z,82.27
2019-01-27T00:52:48.043Z,78.23
2019-01-27T00:55:21.833Z,77.57
2019-01-27T00:57:50.155Z,72.90
2019-01-27T01:00:24.474Z,73.20
2019-01-27T01:02:52.923Z,67.50
2019-01-27T01:05:21.286Z,79.17
2019-01-27T01:07:49.633Z,78.83
2019-01-27T01:10:22.649Z,85.20
2019-01-27T01:12:51.280Z,81.67
2019-01-27T01:15:19.700Z,89.77
2019-01-27T01:17:48.167Z,77.33
2019-01-27T01:20:19.514Z,87.97
2019-01-27T01:22:48.948Z,85.90
2019-01-27T01:25:22.623Z,96.70
2019-01-27T01:27:51.903Z,84.07
2019-01-27T01:30:22.964Z,111.63
2019-01-27T01:32:51.346Z,106.03
2019-01-27T01:35:19.739Z,95.30
2019-01-27T01:37:48.238Z,119.07
2019-01-27T01:40:18.058Z,122.47
2019-01-27T01:42:46.925Z,110.30
2019-01-27T01:45:20.593Z,116.47
2019-01-27T01:47:48.958Z,136.43
2019-01-27T01:50:17.411Z,124.80
2019-01-27T01:52:45.878Z,158.10
2019-01-27T01:55:15.507Z,131.97
2019-01-27T01:57:44.074Z,146.73
2019-01-27T02:00:23.272Z,176.87
2019-01-27T02:02:51.571Z,174.63
2019-01-27T02:05:20.391Z,141.17
2019-01-27T02:07:49.307Z,149.40
2019-01-27T02:10:21.822Z,169.57
2019-01-27T02:12:50.897Z,161.67
2019-01-27T02:15:28.469Z,174.97
2019-01-27T02:17:56.850Z,184.17
2019-01-27T02:20:25.138Z,165.00
2019-01-27T02:22:53.445Z,156.27
2019-01-27T02:25:22.043Z,160.33
2019-01-27T02:27:50.353Z,184.33
2019-01-27T02:30:19.287Z,174.37
2019-01-27T02:32:47.839Z,161.17
2019-01-27T02:35:16.150Z,152.97
2019-01-27T02:37:44.437Z,203.00
2019-01-27T02:40:12.827Z,177.67
2019-01-27T02:42:41.122Z,196.87
2019-01-27T02:45:14.861Z,180.60
2019-01-27T02:47:43.143Z,187.80
2019-01-27T02:50:12.078Z,190.10
2019-01-27T02:52:40.613Z,207.33
2019-01-27T02:55:09.681Z,180.10
2019-01-27T02:57:37.947Z,166.70
2019-01-27T03:00:09.418Z,207.43
2019-01-27T03:02:37.697Z,192.90
2019-01-27T03:05:09.575Z,197.40
2019-01-27T03:07:38.326Z,183.47
2019-01-27T03:10:12.533Z,194.90
2019-01-27T03:12:40.814Z,185.17
2019-01-27T03:15:10.954Z,197.10
2019-01-27T03:17:39.500Z,177.47
2019-01-27T03:20:10.721Z,182.60
2019-01-27T03:22:39.012Z,137.17
2019-01-27T03:25:10.461Z,182.40
2019-01-27T03:27:39.023Z,183.57
2019-01-27T03:30:10.494Z,196.77
2019-01-27T03:32:38.799Z,161.43
2019-01-27T03:35:09.330Z,175.07
2019-01-27T03:37:37.906Z,154.50
2019-01-27T03:40:12.238Z,181.63
2019-01-27T03:42:40.611Z,151.43
2019-01-27T03:45:12.364Z,147.17
2019-01-27T03:47:40.606Z,137.87
2019-01-27T03:50:19.011Z,138.13
2019-01-27T03:52:47.575Z,159.53
2019-01-27T03:55:27.698Z,134.33
2019-01-27T03:57:56.002Z,128.87
2019-01-27T04:00:24.755Z,127.33
2019-01-27T04:02:53.128Z,133.97
2019-01-27T04:05:21.885Z,138.57
2019-01-27T04:07:50.584Z,107.80
2019-01-27T04:10:21.482Z,108.73
2019-01-27T04:12:49.798Z,131.77
2019-01-27T04:15:18.150Z,135.53
2019-01-27T04:17:46.446Z,119.10
2019-01-27T04:20:22.181Z,127.67
2019-01-27T04:22:50.483Z,102.83
2019-01-27T04:25:19.296Z,112.50
2019-01-27T04:27:47.654Z,110.83
2019-01-27T04:30:20.045Z,107.20
2019-01-27T04:32:48.583Z,110.13
2019-01-27T04:35:16.943Z,111.90
2019-01-27T04:37:45.249Z,125.87
2019-01-27T04:40:21.323Z,114.47
2019-01-27T04:42:49.627Z,116.77
2019-01-27T04:45:19.556Z,109.23
2019-01-27T04:47:47.837Z,111.50
2019-01-27T04:50:16.211Z,106.17
2019-01-27T04:52:44.497Z,125.93
2019-01-27T04:55:18.770Z,98.60
2019-01-27T04:57:47.450Z,119.90
2019-01-27T05:00:21.612Z,116.77
2019-01-27T05:02:51.538Z,120.10
2019-01-27T05:05:19.850Z,116.03
2019-01-27T05:07:48.134Z,114.67
2019-01-27T05:10:16.438Z,110.43
2019-01-27T05:12:44.727Z,101.70
2019-01-27T05:15:17.246Z,108.53
2019-01-27T05:17:45.777Z,117.17
2019-01-27T05:20:14.249Z,98.70
2019-01-27T05:22:42.532Z,96.23
2019-01-27T05:25:15.884Z,107.00
2019-01-27T05:27:44.216Z,108.93
2019-01-27T05:30:18.370Z,106.13
2019-01-27T05:32:46.731Z,90.07
2019-01-27T05:35:15.023Z,100.03
2019-01-27T05:37:43.587Z,106.27
2019-01-27T05:40:17.611Z,127.90
2019-01-27T05:42:46.238Z,104.77
2019-01-27T05:45:16.533Z,108.93
2019-01-27T05:47:44.902Z,95.33
2019-01-27T05:50:18.045Z,134.73
2019-01-27T05:52:46.485Z,101.43
2019-01-27T05:55:16.072Z,89.40
2019-01-27T05:57:44.730Z,87.17
2019-01-27T06:00:20.552Z,113.93
2019-01-27T06:02:48.856Z,95.73
2019-01-27T06:05:17.192Z,105.50
2019-01-27T06:07:45.567Z,101.57
2019-01-27T06:10:14.358Z,97.10
2019-01-27T06:12:42.651Z,91.83
2019-01-27T06:15:14.348Z,108.20
2019-01-27T06:17:42.646Z,95.17
2019-01-27T06:20:14.080Z,101.87
2019-01-27T06:22:42.557Z,105.73
2019-01-27T06:25:13.284Z,102.13
2019-01-27T06:27:41.603Z,104.90
2019-01-27T06:30:23.562Z,97.37
2019-01-27T06:32:59.595Z,106.87
2019-01-27T06:35:28.185Z,100.07
2019-01-27T06:37:56.499Z,108.27
2019-01-27T06:40:25.049Z,113.00
2019-01-27T06:42:53.352Z,103.40
2019-01-27T06:45:21.634Z,111.27
2019-01-27T06:47:50.007Z,106.77
2019-01-27T06:50:18.437Z,114.63
2019-01-27T06:52:46.742Z,116.47
2019-01-27T06:55:17.589Z,113.83
2019-01-27T06:57:45.991Z,138.00
2019-01-27T07:00:21.737Z,99.57
2019-01-27T07:02:51.691Z,107.10
2019-01-27T07:05:21.609Z,112.37
2019-01-27T07:07:54.577Z,110.20
2019-01-27T07:10:24.498Z,125.83
2019-01-27T07:12:55.988Z,120.20
2019-01-27T07:15:25.921Z,112.40
2019-01-27T07:17:55.856Z,109.07
2019-01-27T07:20:28.249Z,106.03
2019-01-27T07:23:03.676Z,106.43
2019-01-27T07:25:36.290Z,84.63
2019-01-27T07:28:09.653Z,90.00
2019-01-27T07:30:39.588Z,101.47
2019-01-27T07:33:15.727Z,97.97
2019-01-27T07:35:48.363Z,100.10
2019-01-27T07:38:21.370Z,99.37
2019-01-27T07:40:57.101Z,96.60
2019-01-27T07:43:29.734Z,95.10
2019-01-27T07:46:03.534Z,122.50
2019-01-27T07:48:49.617Z,89.37
2019-01-27T07:51:19.541Z,94.97
2019-01-27T07:53:58.560Z,93.33
2019-01-27T07:56:37.045Z,86.20
2019-01-27T07:59:09.770Z,88.50
2019-01-27T08:01:42.414Z,103.37
2019-01-27T08:04:15.058Z,99.77
2019-01-27T08:06:44.979Z,96.83
2019-01-27T08:09:17.612Z,90.73
2019-01-27T08:11:56.514Z,96.03
2019-01-27T08:14:32.242Z,90.97
2019-01-27T08:17:10.922Z,86.23
2019-01-27T08:19:50.223Z,83.37
2019-01-27T08:22:25.874Z,83.53
2019-01-27T08:24:55.804Z,84.03
2019-01-27T08:27:25.721Z,87.23
2019-01-27T08:30:01.672Z,87.50
2019-01-27T08:32:45.250Z,88.93
2019-01-27T08:35:17.917Z,85.77
2019-01-27T08:37:47.842Z,86.50
2019-01-27T08:40:21.157Z,70.83
2019-01-27T08:42:54.111Z,84.63
2019-01-27T08:45:24.118Z,83.20
2019-01-27T08:47:52.397Z,82.17
2019-01-27T08:50:20.705Z,85.50
2019-01-27T08:52:49.302Z,90.13
2019-01-27T08:55:17.587Z,87.53
2019-01-27T08:57:45.883Z,89.90
2019-01-27T09:00:17.176Z,91.17
2019-01-27T09:03:04.950Z,84.13
2019-01-27T09:05:34.875Z,81.70
2019-01-27T09:08:10.841Z,72.23
2019-01-27T09:10:40.756Z,78.97
2019-01-27T09:13:13.647Z,61.33
2019-01-27T09:15:49.277Z,85.73
2019-01-27T09:18:25.006Z,56.70
2019-01-27T09:20:55.156Z,69.03
2019-01-27T09:23:25.097Z,74.90
2019-01-27T09:25:57.992Z,60.60
2019-01-27T09:28:27.935Z,65.30
2019-01-27T09:31:00.770Z,74.83
2019-01-27T09:33:33.615Z,60.97
2019-01-27T09:36:03.525Z,78.60
2019-01-27T09:38:33.475Z,133.63
2019-01-27T09:41:14.971Z,68.30
2019-01-27T09:43:53.972Z,55.93
2019-01-27T09:46:35.745Z,52.90
2019-01-27T09:49:11.806Z,47.90
2019-01-27T09:51:41.726Z,50.30
2019-01-27T09:54:11.674Z,50.50
2019-01-27T09:56:44.510Z,45.73
2019-01-27T09:59:14.447Z,50.00
2019-01-27T10:01:44.393Z,45.67
2019-01-27T10:04:30.481Z,45.50
2019-01-27T10:07:00.407Z,48.53
2019-01-27T10:09:33.260Z,65.73
2019-01-27T10:12:06.112Z,55.47
2019-01-27T10:14:36.037Z,58.33
2019-01-27T10:17:14.952Z,55.87
2019-01-27T10:19:50.706Z,56.77
2019-01-27T10:22:23.375Z,49.93
2019-01-27T10:25:15.997Z,47.50
2019-01-27T10:27:51.629Z,68.50
2019-01-27T10:30:27.678Z,48.40
2019-01-27T10:32:57.615Z,52.10
2019-01-27T10:35:30.125Z,48.97
2019-01-27T10:38:08.796Z,49.07
2019-01-27T10:40:41.705Z,47.77
2019-01-27T10:43:14.451Z,52.40
2019-01-27T10:45:44.377Z,54.90
2019-01-27T10:48:29.475Z,54.90
2019-01-27T10:50:59.404Z,55.17
2019-01-27T10:53:35.242Z,72.90
2019-01-27T10:56:14.248Z,64.03
2019-01-27T10:58:59.832Z,67.73
2019-01-27T11:01:32.505Z,76.17
2019-01-27T11:04:02.483Z,69.63
2019-01-27T11:06:41.263Z,69.40
2019-01-27T11:09:19.994Z,76.67
2019-01-27T11:11:49.924Z,77.83
2019-01-27T11:14:22.493Z,75.40
2019-01-27T11:16:55.283Z,74.53
2019-01-27T11:19:33.899Z,83.73
2019-01-27T11:22:06.563Z,84.40
2019-01-27T11:24:36.448Z,88.37
2019-01-27T11:27:09.123Z,88.30
2019-01-27T11:29:41.806Z,83.67
2019-01-27T11:32:11.902Z,79.40
2019-01-27T11:34:41.831Z,68.50
2019-01-27T11:37:14.751Z,50.73
2019-01-27T11:40:03.070Z,63.87
2019-01-27T11:42:47.826Z,60.33
2019-01-27T11:45:23.688Z,64.33
2019-01-27T11:47:59.280Z,60.00
2019-01-27T11:50:29.362Z,59.03
2019-01-27T11:52:57.656Z,51.43
2019-01-27T11:55:25.947Z,77.07
2019-01-27T11:57:54.254Z,75.63
2019-01-27T12:00:24.478Z,80.20
2019-01-27T12:02:52.779Z,80.63
2019-01-27T12:05:21.054Z,69.13
2019-01-27T12:07:49.350Z,88.83
2019-01-27T12:10:17.634Z,93.67
2019-01-27T12:12:45.906Z,96.80
2019-01-27T12:15:16.941Z,95.63
2019-01-27T12:17:45.225Z,97.40
2019-01-27T12:20:13.694Z,101.03
2019-01-27T12:22:41.987Z,98.20
2019-01-27T12:25:13.295Z,95.63
2019-01-27T12:27:41.893Z,102.47
2019-01-27T12:30:15.885Z,107.30
2019-01-27T12:32:44.170Z,110.10
2019-01-27T12:35:12.539Z,113.73
2019-01-27T12:37:40.852Z,116.50
2019-01-27T12:40:23.898Z,115.03
2019-01-27T12:42:52.183Z,110.73
2019-01-27T12:45:20.746Z,95.00
2019-01-27T12:47:49.028Z,96.47
2019-01-27T12:50:20.753Z,96.00
2019-01-27T12:52:51.673Z,85.20
2019-01-27T12:55:20.034Z,85.37
2019-01-27T12:57:48.322Z,78.07
2019-01-27T13:00:22.540Z,73.93
2019-01-27T13:02:50.836Z,68.20
2019-01-27T13:05:19.116Z,86.93
2019-01-27T13:07:47.405Z,65.10
2019-01-27T13:10:16.783Z,63.60
2019-01-27T13:12:45.142Z,57.27
2019-01-27T13:15:16.356Z,55.73
2019-01-27T13:17:44.645Z,63.33
2019-01-27T13:20:14.072Z,59.97
2019-01-27T13:22:42.536Z,49.67
2019-01-27T13:25:13.619Z,47.47
2019-01-27T13:27:42.088Z,56.63
2019-01-27T13:30:16.070Z,52.97
2019-01-27T13:32:44.362Z,52.17
2019-01-27T13:35:12.778Z,56.30
2019-01-27T13:37:41.147Z,60.70
2019-01-27T13:40:12.734Z,62.87
2019-01-27T13:42:41.203Z,53.83
2019-01-27T13:45:12.653Z,50.57
2019-01-27T13:47:40.934Z,51.53
2019-01-27T13:50:11.978Z,50.13
2019-01-27T13:52:40.260Z,53.63
2019-01-27T13:55:14.601Z,60.90
2019-01-27T13:57:43.190Z,70.30
2019-01-27T14:00:14.874Z,72.20
2019-01-27T14:02:43.402Z,90.53
2019-01-27T14:05:11.774Z,103.00
2019-01-27T14:07:40.059Z,113.47
2019-01-27T14:10:14.199Z,133.57
2019-01-27T14:12:42.485Z,116.03
2019-01-27T14:15:13.797Z,114.10
2019-01-27T14:17:42.075Z,115.53
2019-01-27T14:20:13.415Z,111.00
2019-01-27T14:22:41.871Z,110.83
2019-01-27T14:25:18.764Z,112.10
2019-01-27T14:27:47.123Z,109.40
2019-01-27T14:30:18.142Z,123.10
2019-01-27T14:32:55.532Z,128.10
2019-01-27T14:35:23.908Z,143.20
2019-01-27T14:37:52.193Z,150.60
2019-01-27T14:40:23.012Z,159.43
2019-01-27T14:42:51.567Z,178.30
2019-01-27T14:45:28.883Z,175.23
2019-01-27T14:47:57.263Z,101.73
2019-01-27T14:50:30.562Z,100.93
2019-01-27T14:52:58.857Z,89.00
2019-01-27T14:55:27.133Z,89.33
2019-01-27T14:57:55.734Z,64.07
2019-01-27T15:00:29.433Z,63.10
2019-01-27T15:02:58.313Z,150.60
2019-01-27T15:05:26.594Z,83.43
2019-01-27T15:07:54.882Z,80.23
2019-01-27T15:10:24.150Z,88.60
2019-01-27T15:12:52.440Z,84.77
2019-01-27T15:15:21.961Z,87.00
2019-01-27T15:17:50.328Z,87.53
2019-01-27T15:20:27.440Z,87.73
2019-01-27T15:22:55.744Z,89.07
2019-01-27T15:25:24.092Z,89.47
2019-01-27T15:27:52.388Z,87.13
2019-01-27T15:30:26.125Z,85.80
2019-01-27T15:32:54.709Z,97.17
2019-01-27T15:35:22.995Z,95.57
2019-01-27T15:37:51.275Z,89.43
2019-01-27T15:40:19.797Z,92.50
2019-01-27T15:42:48.112Z,97.77
2019-01-27T15:45:19.572Z,91.73
2019-01-27T15:47:47.878Z,97.13
2019-01-27T15:50:19.178Z,96.77
2019-01-27T15:52:47.603Z,98.73
2019-01-27T15:55:17.648Z,101.07
2019-01-27T15:57:46.101Z,119.43
2019-01-27T16:00:32.808Z,103.83
2019-01-27T16:03:01.165Z,102.60
2019-01-27T16:05:29.541Z,104.40
2019-01-27T16:07:57.830Z,111.03
2019-01-27T16:10:27.467Z,92.40
2019-01-27T16:12:57.297Z,100.70
2019-01-27T16:15:37.849Z,89.73
2019-01-27T16:18:06.967Z,91.10
2019-01-27T16:20:36.456Z,89.60
2019-01-27T16:23:15.261Z,92.00
2019-01-27T16:25:43.629Z,87.47
2019-01-27T16:28:11.982Z,92.77
2019-01-27T16:30:47.975Z,90.20
2019-01-27T16:33:32.648Z,116.07
2019-01-27T16:36:01.221Z,112.77
2019-01-27T16:38:29.514Z,108.23
2019-01-27T16:40:57.787Z,78.97
2019-01-27T16:43:26.075Z,82.57
2019-01-27T16:45:54.352Z,84.50
2019-01-27T16:48:22.649Z,97.70
2019-01-27T16:50:51.255Z,81.87
2019-01-27T16:53:19.550Z,84.23
2019-01-27T16:55:47.828Z,83.50
2019-01-27T16:58:16.169Z,83.20
2019-01-27T17:00:44.461Z,85.40
2019-01-27T17:03:13.038Z,87.73
2019-01-27T17:05:41.587Z,90.47
2019-01-27T17:08:10.033Z,112.83
2019-01-27T17:10:38.555Z,91.70
2019-01-27T17:13:06.935Z,80.33
2019-01-27T17:15:35.536Z,86.07
2019-01-27T17:18:04.168Z,94.47
2019-01-27T17:20:32.455Z,96.60
2019-01-27T17:23:00.820Z,82.60
2019-01-27T17:25:29.102Z,93.33
2019-01-27T17:27:57.398Z,96.07
2019-01-27T17:30:26.923Z,103.83
2019-01-27T17:32:55.380Z,89.30
2019-01-27T17:35:24.415Z,95.77
2019-01-27T17:37:53.031Z,96.03
2019-01-27T17:40:21.499Z,107.33
2019-01-27T17:42:49.793Z,101.30
2019-01-27T17:45:23.222Z,120.93
2019-01-27T17:47:51.591Z,90.70
2019-01-27T17:50:21.004Z,82.63
2019-01-27T17:52:49.822Z,76.07
2019-01-27T17:55:40.105Z,76.07
2019-01-27T17:58:28.766Z,81.43
2019-01-27T18:01:10.735Z,54.53
2019-01-27T18:03:40.908Z,50.77
2019-01-27T18:06:13.358Z,54.83
2019-01-27T18:08:59.508Z,54.93
2019-01-27T18:11:45.408Z,47.97
2019-01-27T18:14:15.335Z,42.07
2019-01-27T18:16:43.629Z,43.60
2019-01-27T18:19:11.901Z,43.67
2019-01-27T18:21:40.455Z,49.60
2019-01-27T18:24:08.980Z,49.17
2019-01-27T18:26:37.277Z,45.70
2019-01-27T18:29:05.806Z,51.23
2019-01-27T18:31:34.425Z,53.07
2019-01-27T18:34:02.710Z,46.07
2019-01-27T18:36:31.007Z,47.70
2019-01-27T18:38:59.352Z,48.37
2019-01-27T18:41:27.915Z,48.30
2019-01-27T18:43:56.177Z,49.37
2019-01-27T18:46:24.487Z,41.83
2019-01-27T18:48:52.752Z,46.40
2019-01-27T18:51:21.285Z,46.00
2019-01-27T18:54:07.130Z,41.43
2019-01-27T18:56:43.368Z,40.63
2019-01-27T18:59:13.279Z,41.03
2019-01-27T19:01:45.715Z,41.00
2019-01-27T19:04:15.638Z,39.37
2019-01-27T19:06:45.824Z,36.27
2019-01-27T19:09:18.435Z,37.63
2019-01-27T19:11:54.061Z,31.87
2019-01-27T19:14:35.923Z,34.97
2019-01-27T19:17:06.649Z,40.93
2019-01-27T19:19:45.513Z,34.07
2019-01-27T19:22:21.118Z,33.23
2019-01-27T19:25:00.026Z,34.23
2019-01-27T19:27:32.423Z,31.70
2019-01-27T19:30:04.864Z,31.17
2019-01-27T19:32:37.843Z,33.50
2019-01-27T19:35:21.772Z,29.27
2019-01-27T19:37:51.705Z,32.27
2019-01-27T19:40:24.046Z,32.67
2019-01-27T19:43:08.823Z,34.77
2019-01-27T19:45:41.759Z,33.93
2019-01-27T19:48:20.641Z,32.70
2019-01-27T19:50:56.018Z,32.93
2019-01-27T19:53:43.478Z,36.63
2019-01-27T19:56:25.046Z,33.73
2019-01-27T19:58:57.742Z,36.97
2019-01-27T20:01:30.069Z,33.40
2019-01-27T20:04:02.718Z,35.90
2019-01-27T20:06:48.263Z,33.60
2019-01-27T20:09:20.744Z,31.43
2019-01-27T20:11:53.545Z,36.23
2019-01-27T20:14:27.380Z,32.27
2019-01-27T20:17:05.758Z,29.03
2019-01-27T20:19:35.696Z,32.43
2019-01-27T20:22:05.610Z,31.93
2019-01-27T20:24:41.610Z,30.80
2019-01-27T20:27:17.643Z,29.33
2019-01-27T20:29:53.584Z,27.93
2019-01-27T20:32:23.504Z,23.57
2019-01-27T20:34:53.440Z,28.00
2019-01-27T20:37:26.009Z,31.37
2019-01-27T20:40:01.369Z,25.80
2019-01-27T20:42:40.043Z,25.00
2019-01-27T20:45:13.249Z,25.97
2019-01-27T20:47:45.875Z,27.40
2019-01-27T20:50:21.539Z,27.57
2019-01-27T20:52:54.222Z,28.50
2019-01-27T20:55:38.808Z,21.43
2019-01-27T20:58:08.708Z,26.13
2019-01-27T21:00:38.647Z,27.13
2019-01-27T21:03:11.358Z,27.97
2019-01-27T21:05:46.955Z,26.30
2019-01-27T21:08:22.595Z,26.80
2019-01-27T21:10:52.522Z,25.37
2019-01-27T21:13:25.164Z,27.50
2019-01-27T21:15:55.080Z,27.63
2019-01-27T21:18:25.026Z,26.70
2019-01-27T21:20:53.839Z,24.93
2019-01-27T21:23:22.180Z,26.90
2019-01-27T21:25:50.464Z,28.17
2019-01-27T21:28:18.822Z,26.80
2019-01-27T21:30:47.099Z,24.63
2019-01-27T21:33:15.397Z,27.20
2019-01-27T21:35:43.682Z,26.40
2019-01-27T21:38:11.967Z,25.83
2019-01-27T21:40:40.253Z,27.00
2019-01-27T21:43:08.800Z,24.50
2019-01-27T21:45:37.072Z,24.97
2019-01-27T21:48:05.435Z,26.53
2019-01-27T21:50:33.981Z,23.77
2019-01-27T21:53:02.264Z,24.13
2019-01-27T21:55:30.552Z,24.60
2019-01-27T21:57:59.094Z,25.27
2019-01-27T22:00:27.390Z,22.90
2019-01-27T22:02:55.710Z,23.03
2019-01-27T22:05:23.994Z,23.33
2019-01-27T22:07:52.270Z,21.53
2019-01-27T22:10:20.571Z,21.47
2019-01-27T22:12:48.843Z,24.33
2019-01-27T22:15:17.321Z,27.13
2019-01-27T22:17:45.654Z,26.60
2019-01-27T22:20:15.026Z,29.70
2019-01-27T22:22:43.365Z,31.47
2019-01-27T22:25:13.496Z,34.43
2019-01-27T22:27:42.029Z,30.20
2019-01-27T22:30:15.726Z,30.93
2019-01-27T22:32:44.004Z,30.10
2019-01-27T22:35:12.858Z,32.73
2019-01-27T22:37:41.152Z,36.80
2019-01-27T22:40:12.417Z,29.33
2019-01-27T22:42:40.720Z,34.90
2019-01-27T22:45:14.378Z,38.43
2019-01-27T22:47:42.668Z,35.53
2019-01-27T22:50:13.786Z,37.10
2019-01-27T22:52:42.088Z,37.73
2019-01-27T22:55:11.202Z,33.17
2019-01-27T22:57:39.499Z,35.23
2019-01-27T23:00:24.444Z,35.17
2019-01-27T23:02:53.006Z,31.00
2019-01-27T23:05:21.282Z,33.73
2019-01-27T23:07:49.830Z,33.77
2019-01-27T23:10:18.113Z,33.13
2019-01-27T23:12:46.656Z,33.10
2019-01-27T23:15:14.938Z,30.93
2019-01-27T23:17:43.233Z,30.83
2019-01-27T23:20:11.580Z,28.70
2019-01-27T23:22:39.885Z,32.13
2019-01-27T23:25:08.226Z,31.47
2019-01-27T23:27:36.524Z,29.90
2019-01-27T23:30:07.373Z,30.00
2019-01-27T23:32:35.649Z,30.73
2019-01-27T23:35:05.206Z,28.90
2019-01-27T23:37:33.490Z,29.70
2019-01-27T23:40:01.780Z,30.80
2019-01-27T23:42:30.054Z,27.23
2019-01-27T23:44:58.345Z,27.37
2019-01-27T23:47:26.630Z,26.93
2019-01-27T23:49:54.926Z,30.27
2019-01-27T23:52:23.201Z,28.50
2019-01-27T23:54:51.760Z,27.93
2019-01-27T23:57:20.267Z,24.97
2019-01-27T23:59:48.561Z,27.90
